Time;durP1;ratioP1;P1;durP2;ratioP2;P2;SDS_P1;SDS_P2;PMS_P1;PMS_P2;Temp;Humidity;BMP_temperature;BMP_pressure;BME280_temperature;BME280_humidity;BME280_pressure;Samples;Min_cycle;Max_cycle;Signal;HPM_P1;HPM_P2
2023/02/25 00:02:15;;;;;;;3.17;0.25;;;4.70;99.90;;;;;;4969866;28;20487;-72
2023/02/25 00:04:41;;;;;;;3.90;0.52;;;4.70;99.90;;;;;;4972236;28;20102;-72
2023/02/25 00:07:08;;;;;;;2.25;0.32;;;4.60;99.90;;;;;;4974673;28;20118;-72
2023/02/25 00:09:33;;;;;;;5.40;0.70;;;4.50;99.90;;;;;;4968486;28;20030;-72
2023/02/25 00:11:59;;;;;;;3.95;0.60;;;4.40;99.90;;;;;;4977060;28;20038;-72
2023/02/25 00:14:26;;;;;;;3.42;0.82;;;4.50;99.90;;;;;;4969535;28;20043;-72
2023/02/25 00:16:54;;;;;;;3.40;0.35;;;4.40;99.90;;;;;;4978848;28;20073;-72
2023/02/25 00:19:23;;;;;;;8.13;1.07;;;4.50;99.90;;;;;;4984416;28;20085;-72
2023/02/25 00:21:48;;;;;;;11.50;1.65;;;4.50;99.90;;;;;;5017901;28;20031;-72
2023/02/25 00:24:16;;;;;;;7.20;0.90;;;4.60;99.90;;;;;;4983085;28;20034;-72
2023/02/25 00:26:43;;;;;;;7.70;1.50;;;4.60;99.90;;;;;;4978714;28;20042;-72
2023/02/25 00:29:08;;;;;;;8.90;1.73;;;4.70;99.90;;;;;;4980756;28;20634;-72
2023/02/25 00:31:37;;;;;;;7.38;0.85;;;4.70;99.90;;;;;;4974597;28;20125;-71
2023/02/25 00:34:02;;;;;;;16.95;1.98;;;4.70;99.90;;;;;;4984460;28;20038;-72
2023/02/25 00:36:28;;;;;;;8.57;1.13;;;4.70;99.90;;;;;;4979261;28;20038;-72
2023/02/25 00:38:56;;;;;;;5.85;0.60;;;4.70;99.90;;;;;;4971128;28;20129;-72
2023/02/25 00:41:29;;;;;;;4.38;0.75;;;4.70;99.90;;;;;;4978544;28;20104;-73
2023/02/25 00:44:00;;;;;;;6.75;1.17;;;4.70;99.90;;;;;;4966141;28;20023;-72
2023/02/25 00:46:27;;;;;;;9.18;1.30;;;4.60;99.90;;;;;;4980930;28;20049;-72
2023/02/25 00:48:52;;;;;;;6.35;0.95;;;4.50;99.90;;;;;;4982232;28;20023;-72
2023/02/25 00:51:23;;;;;;;4.07;0.88;;;4.40;99.90;;;;;;4974494;28;20791;-73
2023/02/25 00:53:49;;;;;;;6.30;0.60;;;4.40;99.90;;;;;;4991070;28;20023;-72
2023/02/25 00:56:16;;;;;;;16.55;1.58;;;4.40;99.90;;;;;;4984457;28;20031;-72
2023/02/25 00:58:44;;;;;;;5.32;0.95;;;4.30;99.90;;;;;;4987951;28;20117;-71
2023/02/25 01:01:32;;;;;;;14.00;2.35;;;4.20;99.90;;;;;;5015822;28;20471;-72
2023/02/25 01:03:58;;;;;;;9.25;0.60;;;4.10;99.90;;;;;;4979658;28;20033;-72
2023/02/25 01:06:25;;;;;;;10.93;1.20;;;4.00;99.90;;;;;;5001919;28;20030;-72
2023/02/25 01:08:50;;;;;;;11.15;1.23;;;4.00;99.90;;;;;;5004360;28;20126;-72
2023/02/25 01:11:27;;;;;;;8.45;2.03;;;3.90;99.90;;;;;;4980654;28;20137;-72
2023/02/25 01:13:55;;;;;;;9.85;1.15;;;3.90;99.90;;;;;;4985909;28;20511;-72
2023/02/25 01:16:23;;;;;;;19.50;2.72;;;3.90;99.90;;;;;;4975603;28;20035;-71
2023/02/25 01:18:53;;;;;;;6.50;1.50;;;3.90;99.90;;;;;;4974215;28;20046;-72
2023/02/25 01:21:24;;;;;;;6.35;1.67;;;3.90;99.90;;;;;;4974249;28;20139;-72
2023/02/25 01:23:58;;;;;;;6.35;1.20;;;3.90;99.90;;;;;;4972681;28;20038;-72
2023/02/25 01:26:30;;;;;;;11.65;0.90;;;3.80;99.90;;;;;;4984040;28;20043;-72
2023/02/25 01:28:56;;;;;;;11.93;1.42;;;3.80;99.90;;;;;;4971621;28;20379;-71
2023/02/25 01:31:28;;;;;;;11.40;2.03;;;3.80;99.90;;;;;;4970440;28;20035;-72
2023/02/25 01:34:00;;;;;;;10.45;1.80;;;3.80;99.90;;;;;;4969072;28;20039;-72
2023/02/25 01:36:27;;;;;;;13.77;1.58;;;3.80;99.90;;;;;;4975047;28;20026;-72
2023/02/25 01:38:53;;;;;;;9.00;1.55;;;3.80;99.90;;;;;;4976190;28;20031;-72
2023/02/25 01:41:18;;;;;;;13.30;2.75;;;3.90;99.90;;;;;;4978723;28;20046;-72
2023/02/25 01:44:09;;;;;;;14.52;2.22;;;3.90;99.90;;;;;;4975939;28;20038;-72
2023/02/25 01:46:37;;;;;;;18.83;1.42;;;3.90;99.90;;;;;;4977861;28;20688;-72
2023/02/25 01:49:06;;;;;;;7.78;1.88;;;3.90;99.90;;;;;;4974108;28;20375;-71
2023/02/25 01:51:33;;;;;;;14.57;1.55;;;3.90;99.90;;;;;;4980808;28;20380;-72
2023/02/25 01:54:01;;;;;;;19.70;1.83;;;3.90;99.90;;;;;;4981158;28;20050;-72
2023/02/25 01:56:29;;;;;;;15.07;2.38;;;4.00;99.90;;;;;;4981743;28;20027;-72
2023/02/25 01:58:57;;;;;;;13.52;1.50;;;4.00;99.90;;;;;;4980756;28;20026;-72
2023/02/25 02:01:25;;;;;;;16.00;2.10;;;4.10;99.90;;;;;;4982454;28;20062;-73
2023/02/25 02:03:51;;;;;;;14.50;1.55;;;4.10;99.90;;;;;;4980657;28;20038;-72
2023/02/25 02:06:30;;;;;;;18.00;2.95;;;4.20;99.90;;;;;;4981435;28;20030;-71
2023/02/25 02:08:57;;;;;;;10.60;1.48;;;4.30;99.90;;;;;;4969412;28;20039;-72
2023/02/25 02:11:22;;;;;;;15.15;2.08;;;4.30;99.90;;;;;;4976347;28;20034;-72
2023/02/25 02:13:53;;;;;;;19.17;2.53;;;4.40;99.90;;;;;;4980765;28;20022;-72
2023/02/25 02:16:37;;;;;;;13.23;1.75;;;4.50;99.90;;;;;;4975721;28;20026;-72
2023/02/25 02:19:34;;;;;;;8.52;1.17;;;4.50;99.90;;;;;;4988610;28;20031;-72
2023/02/25 02:22:23;;;;;;;14.32;2.47;;;4.60;99.90;;;;;;4969157;28;20042;-72
2023/02/25 02:25:04;;;;;;;9.68;1.50;;;4.60;99.90;;;;;;4977823;28;20066;-71
2023/02/25 02:27:45;;;;;;;13.05;1.73;;;4.70;99.90;;;;;;4976727;28;20142;-72
2023/02/25 02:30:27;;;;;;;10.85;1.77;;;4.70;99.90;;;;;;4970958;28;20049;-73
2023/02/25 02:33:18;;;;;;;12.07;2.55;;;4.70;99.90;;;;;;5009558;28;20027;-72
2023/02/25 02:35:50;;;;;;;16.85;1.73;;;4.60;99.90;;;;;;4977571;28;20046;-72
2023/02/25 02:38:38;;;;;;;18.85;1.73;;;4.50;99.90;;;;;;4971901;28;20503;-72
2023/02/25 02:41:23;;;;;;;8.95;1.15;;;4.50;99.90;;;;;;4972463;28;20387;-72
2023/02/25 02:44:05;;;;;;;10.63;2.20;;;4.40;99.90;;;;;;4986500;28;20066;-72
2023/02/25 02:46:49;;;;;;;11.30;1.70;;;4.40;99.90;;;;;;4987254;28;20035;-72
2023/02/25 02:49:34;;;;;;;8.82;1.10;;;4.50;99.90;;;;;;4974646;28;20125;-72
2023/02/25 02:52:15;;;;;;;24.27;3.20;;;4.50;99.90;;;;;;4972782;28;20080;-71
2023/02/25 02:54:46;;;;;;;10.75;1.67;;;4.50;99.90;;;;;;4974438;28;20117;-72
2023/02/25 02:57:14;;;;;;;14.27;1.95;;;4.60;99.90;;;;;;4988838;28;20041;-72
2023/02/25 02:59:46;;;;;;;17.13;2.67;;;4.60;99.90;;;;;;4979423;28;20546;-72
2023/02/25 03:02:21;;;;;;;19.98;3.78;;;4.60;99.90;;;;;;4988605;28;20034;-72
2023/02/25 03:04:49;;;;;;;10.15;2.38;;;4.60;99.90;;;;;;4970637;28;20054;-72
2023/02/25 03:07:17;;;;;;;8.32;1.65;;;4.60;99.90;;;;;;4986597;28;20042;-72
2023/02/25 03:09:48;;;;;;;14.60;2.42;;;4.60;99.90;;;;;;4985693;28;20042;-73
2023/02/25 03:12:15;;;;;;;11.85;1.92;;;4.60;99.90;;;;;;4971899;28;20031;-72
2023/02/25 03:14:40;;;;;;;15.05;1.23;;;4.60;99.90;;;;;;4976181;28;20114;-73
2023/02/25 03:17:19;;;;;;;11.82;2.20;;;4.70;99.90;;;;;;4982240;28;20222;-72
2023/02/25 03:19:55;;;;;;;11.10;1.60;;;4.70;99.90;;;;;;4984905;28;20089;-73
2023/02/25 03:22:30;;;;;;;10.70;1.50;;;4.60;99.90;;;;;;4987820;28;20499;-72
2023/02/25 03:25:07;;;;;;;14.00;1.77;;;4.60;99.90;;;;;;4976622;28;20033;-72
2023/02/25 03:27:37;;;;;;;8.27;1.15;;;4.60;99.90;;;;;;4976217;28;20031;-72
2023/02/25 03:30:11;;;;;;;11.87;2.23;;;4.70;99.90;;;;;;4976136;28;20026;-72
2023/02/25 03:32:42;;;;;;;10.88;1.75;;;4.70;99.90;;;;;;4966764;28;20047;-73
2023/02/25 03:35:09;;;;;;;14.10;2.00;;;4.70;99.90;;;;;;4957011;28;20123;-72
2023/02/25 03:37:38;;;;;;;21.30;2.78;;;4.70;99.90;;;;;;4987585;28;20048;-72
2023/02/25 03:40:13;;;;;;;13.25;1.60;;;4.80;99.90;;;;;;4986023;28;20112;-72
2023/02/25 03:42:51;;;;;;;24.23;2.65;;;4.70;99.90;;;;;;4977225;28;20390;-71
2023/02/25 03:45:18;;;;;;;14.10;2.60;;;4.80;99.90;;;;;;4970014;28;20117;-71
2023/02/25 03:47:44;;;;;;;6.85;1.27;;;4.80;99.90;;;;;;4975887;28;20042;-72
2023/02/25 03:50:19;;;;;;;23.45;2.38;;;4.80;99.90;;;;;;4981625;28;20042;-72
2023/02/25 03:52:45;;;;;;;19.67;3.30;;;4.90;99.90;;;;;;4977787;28;20027;-72
2023/02/25 03:55:13;;;;;;;11.65;1.83;;;4.90;99.90;;;;;;4975394;28;20046;-72
2023/02/25 03:57:41;;;;;;;11.65;1.75;;;4.90;99.90;;;;;;4981902;28;20034;-73
2023/02/25 04:00:16;;;;;;;11.27;1.45;;;4.90;99.90;;;;;;4986872;28;20065;-72
2023/02/25 04:02:44;;;;;;;18.05;2.20;;;4.90;99.90;;;;;;4978019;28;20122;-72
2023/02/25 04:05:11;;;;;;;22.23;3.92;;;5.00;99.90;;;;;;4975180;28;20074;-72
2023/02/25 04:07:36;;;;;;;14.50;2.85;;;4.90;99.90;;;;;;4966988;28;20353;-72
2023/02/25 04:10:04;;;;;;;26.23;2.30;;;4.90;99.90;;;;;;4983697;28;20034;-73
2023/02/25 04:12:30;;;;;;;16.08;1.55;;;4.90;99.90;;;;;;4981871;28;20133;-72
2023/02/25 04:14:55;;;;;;;15.38;1.70;;;4.80;99.90;;;;;;4989078;28;20126;-72
2023/02/25 04:17:21;;;;;;;10.55;3.30;;;4.90;99.90;;;;;;5000731;28;20762;-73
2023/02/25 04:19:46;;;;;;;13.20;1.48;;;4.90;99.90;;;;;;4979303;28;20042;-72
2023/02/25 04:22:12;;;;;;;13.45;2.45;;;4.90;99.90;;;;;;4987207;28;20112;-72
2023/02/25 04:24:41;;;;;;;11.00;1.02;;;4.90;99.90;;;;;;4994156;28;20042;-72
2023/02/25 04:27:06;;;;;;;9.73;1.60;;;4.80;99.90;;;;;;4982469;28;20490;-71
2023/02/25 04:29:32;;;;;;;17.15;1.40;;;4.90;99.90;;;;;;4993709;28;20104;-72
2023/02/25 04:31:57;;;;;;;12.55;1.98;;;4.90;99.90;;;;;;4977275;28;20033;-72
2023/02/25 04:34:23;;;;;;;11.35;2.03;;;4.90;99.90;;;;;;4992665;28;20088;-71
2023/02/25 04:36:49;;;;;;;7.03;1.25;;;4.90;99.90;;;;;;4970181;28;20716;-72
2023/02/25 04:39:18;;;;;;;13.88;1.85;;;4.80;99.90;;;;;;4988271;28;20141;-72
2023/02/25 04:41:44;;;;;;;13.75;1.95;;;4.80;99.90;;;;;;4992918;28;20386;-72
2023/02/25 04:44:10;;;;;;;11.05;1.98;;;4.80;99.90;;;;;;5006558;28;20045;-72
2023/02/25 04:46:38;;;;;;;9.88;1.48;;;4.80;99.90;;;;;;4979452;28;20057;-72
2023/02/25 04:49:05;;;;;;;10.75;2.17;;;4.70;99.90;;;;;;4994648;28;20027;-72
2023/02/25 04:51:31;;;;;;;5.00;0.70;;;4.70;99.90;;;;;;4991329;28;20033;-72
2023/02/25 04:53:57;;;;;;;16.40;1.50;;;4.70;99.90;;;;;;4997591;28;20037;-72
2023/02/25 04:56:22;;;;;;;10.77;1.60;;;4.70;99.90;;;;;;4993047;28;20038;-72
2023/02/25 04:58:48;;;;;;;12.32;2.88;;;4.60;99.90;;;;;;4994014;28;20566;-72
2023/02/25 05:01:14;;;;;;;11.02;1.92;;;4.50;99.90;;;;;;4976640;28;20076;-72
2023/02/25 05:03:41;;;;;;;10.60;1.77;;;4.40;99.90;;;;;;4989608;28;20023;-72
2023/02/25 05:06:07;;;;;;;7.97;1.42;;;4.30;99.90;;;;;;4986858;28;20733;-72
2023/02/25 05:08:34;;;;;;;12.55;2.65;;;4.30;99.90;;;;;;4993173;28;20038;-72
2023/02/25 05:11:00;;;;;;;11.20;1.67;;;4.30;99.90;;;;;;5008051;28;20045;-72
2023/02/25 05:13:27;;;;;;;12.15;1.15;;;4.20;99.90;;;;;;5003701;28;20755;-72
2023/02/25 05:16:01;;;;;;;12.20;2.88;;;4.30;99.90;;;;;;4981055;28;20030;-72
2023/02/25 05:18:27;;;;;;;20.35;1.92;;;4.30;99.90;;;;;;5008956;28;20651;-73
2023/02/25 05:20:52;;;;;;;9.70;1.27;;;4.30;99.90;;;;;;5002949;28;20036;-72
2023/02/25 05:23:18;;;;;;;11.93;1.38;;;4.30;99.90;;;;;;4996605;28;20486;-72
2023/02/25 05:25:44;;;;;;;11.45;2.15;;;4.30;99.90;;;;;;5005131;28;20045;-73
2023/02/25 05:28:10;;;;;;;12.32;2.15;;;4.40;99.90;;;;;;5005011;28;20554;-72
2023/02/25 05:30:37;;;;;;;9.02;2.28;;;4.40;99.90;;;;;;5009003;28;20059;-72
2023/02/25 05:33:04;;;;;;;8.32;1.52;;;4.40;99.90;;;;;;4998538;28;20137;-71
2023/02/25 05:35:31;;;;;;;12.73;1.92;;;4.50;99.90;;;;;;4995816;28;20046;-72
2023/02/25 05:37:57;;;;;;;11.60;1.23;;;4.50;99.90;;;;;;5006018;28;20062;-72
2023/02/25 05:40:23;;;;;;;9.25;2.45;;;4.50;99.90;;;;;;5004216;28;20034;-71
2023/02/25 05:42:49;;;;;;;23.48;3.10;;;4.50;99.90;;;;;;5003157;28;20042;-72
2023/02/25 05:45:16;;;;;;;13.20;2.00;;;4.40;99.90;;;;;;4997266;28;20057;-72
2023/02/25 05:47:42;;;;;;;14.50;1.98;;;4.30;99.90;;;;;;4972374;28;20030;-72
2023/02/25 05:50:09;;;;;;;8.68;1.30;;;4.20;99.90;;;;;;5000866;28;20109;-72
2023/02/25 05:52:34;;;;;;;15.93;2.47;;;4.30;99.90;;;;;;4999385;28;20062;-72
2023/02/25 05:55:03;;;;;;;21.13;3.38;;;4.20;99.90;;;;;;5007083;28;20120;-73
2023/02/25 05:57:29;;;;;;;7.57;1.35;;;4.20;99.90;;;;;;5000149;28;20132;-71
2023/02/25 05:59:54;;;;;;;11.52;2.03;;;4.20;99.90;;;;;;5000274;28;20121;-72
2023/02/25 06:02:20;;;;;;;9.70;1.48;;;4.10;99.90;;;;;;5006161;28;20088;-72
2023/02/25 06:04:51;;;;;;;10.77;1.85;;;4.10;99.90;;;;;;5007938;28;20022;-72
2023/02/25 06:07:17;;;;;;;12.52;1.50;;;4.00;99.90;;;;;;4980239;28;20050;-72
2023/02/25 06:09:42;;;;;;;14.75;2.70;;;4.10;99.90;;;;;;4995142;28;20034;-71
2023/02/25 06:12:08;;;;;;;14.45;2.67;;;4.00;99.90;;;;;;4973992;28;20073;-72
2023/02/25 06:14:33;;;;;;;14.73;1.88;;;4.00;99.90;;;;;;4999933;28;20034;-72
2023/02/25 06:16:59;;;;;;;9.95;1.55;;;4.00;99.90;;;;;;4998526;28;20039;-72
2023/02/25 06:19:25;;;;;;;15.13;2.45;;;4.00;99.90;;;;;;4989232;28;20104;-73
2023/02/25 06:21:53;;;;;;;23.45;3.83;;;4.00;99.90;;;;;;4996832;28;20056;-72
2023/02/25 06:24:19;;;;;;;9.80;1.25;;;4.00;99.90;;;;;;4995927;28;20108;-73
2023/02/25 06:26:45;;;;;;;12.48;1.98;;;4.10;99.90;;;;;;4990045;28;20430;-73
2023/02/25 06:29:11;;;;;;;18.20;1.92;;;4.00;99.90;;;;;;4971003;28;20093;-72
2023/02/25 06:31:37;;;;;;;12.05;3.28;;;4.00;99.90;;;;;;4978824;28;20049;-72
2023/02/25 06:34:06;;;;;;;24.70;2.70;;;4.00;99.90;;;;;;4970336;28;20084;-72
2023/02/25 06:36:32;;;;;;;24.88;3.72;;;4.00;99.90;;;;;;4993787;28;20033;-73
2023/02/25 06:38:58;;;;;;;16.33;3.20;;;4.10;99.90;;;;;;4989951;28;20061;-72
2023/02/25 06:41:24;;;;;;;11.38;2.63;;;4.00;99.90;;;;;;4989318;28;20030;-72
2023/02/25 06:43:51;;;;;;;19.00;2.35;;;4.00;99.90;;;;;;4987333;28;20438;-71
2023/02/25 06:46:19;;;;;;;8.52;1.35;;;4.00;99.90;;;;;;4974556;28;20774;-72
2023/02/25 06:48:45;;;;;;;14.63;2.08;;;4.00;99.90;;;;;;4973413;28;20475;-72
2023/02/25 06:51:11;;;;;;;17.60;2.55;;;4.00;99.90;;;;;;4996775;28;20042;-72
2023/02/25 06:53:43;;;;;;;13.63;1.90;;;4.00;99.90;;;;;;4994414;28;20092;-72
2023/02/25 06:56:11;;;;;;;11.90;1.58;;;4.00;99.90;;;;;;4993691;28;20044;-70
2023/02/25 06:58:37;;;;;;;17.73;3.03;;;4.00;99.90;;;;;;5001556;28;20092;-72
2023/02/25 07:01:07;;;;;;;18.77;2.40;;;4.10;99.90;;;;;;4996354;28;20062;-71
2023/02/25 07:03:33;;;;;;;18.17;4.45;;;4.20;99.90;;;;;;4996244;28;20055;-72
2023/02/25 07:05:59;;;;;;;12.70;2.17;;;4.10;99.90;;;;;;4999269;28;20474;-72
2023/02/25 07:08:24;;;;;;;23.20;4.05;;;4.10;99.90;;;;;;4994208;28;20042;-72
2023/02/25 07:10:50;;;;;;;20.13;2.67;;;4.10;99.90;;;;;;4991116;28;20511;-72
2023/02/25 07:13:16;;;;;;;19.88;3.38;;;4.30;99.90;;;;;;4978785;28;20038;-72
2023/02/25 07:15:42;;;;;;;16.00;2.03;;;4.30;99.90;;;;;;4986803;28;20037;-72
2023/02/25 07:18:07;;;;;;;14.93;2.30;;;4.40;99.90;;;;;;5002150;28;20034;-72
2023/02/25 07:20:33;;;;;;;13.30;1.45;;;4.50;99.90;;;;;;4992445;28;20030;-72
2023/02/25 07:23:02;;;;;;;10.52;2.97;;;4.60;99.90;;;;;;4994849;28;20034;-72
2023/02/25 07:25:27;;;;;;;10.77;2.35;;;4.60;99.90;;;;;;4971673;28;20065;-72
2023/02/25 07:27:56;;;;;;;12.35;1.88;;;4.60;99.90;;;;;;4991584;28;20045;-71
2023/02/25 07:30:21;;;;;;;18.67;2.03;;;4.70;99.90;;;;;;4991141;28;20494;-72
2023/02/25 07:32:47;;;;;;;9.15;1.70;;;4.70;99.90;;;;;;4989881;28;20081;-71
2023/02/25 07:35:12;;;;;;;7.45;1.13;;;4.80;99.90;;;;;;5003254;28;20444;-72
2023/02/25 07:37:38;;;;;;;10.18;1.48;;;4.80;99.90;;;;;;5000526;28;20068;-72
2023/02/25 07:40:11;;;;;;;21.10;2.38;;;4.80;99.90;;;;;;4996671;28;20635;-71
2023/02/25 07:42:40;;;;;;;15.57;1.80;;;4.80;99.90;;;;;;4986691;28;20121;-72
2023/02/25 07:45:08;;;;;;;9.63;1.77;;;4.90;99.90;;;;;;4985963;28;20081;-72
2023/02/25 07:47:34;;;;;;;13.85;1.48;;;4.90;99.90;;;;;;4983318;28;20100;-72
2023/02/25 07:49:59;;;;;;;14.02;3.55;;;4.80;99.90;;;;;;4995881;28;20042;-71
2023/02/25 07:52:25;;;;;;;15.73;1.95;;;4.80;99.90;;;;;;4993507;28;20110;-73
2023/02/25 07:54:51;;;;;;;7.53;1.42;;;4.80;99.90;;;;;;4992990;28;20034;-72
2023/02/25 07:57:16;;;;;;;14.95;2.92;;;4.90;99.90;;;;;;4989385;28;20045;-72
2023/02/25 07:59:42;;;;;;;21.27;3.33;;;5.00;99.90;;;;;;4992310;28;20129;-72
2023/02/25 08:02:10;;;;;;;11.32;1.88;;;5.10;99.90;;;;;;4986382;28;20553;-72
2023/02/25 08:04:36;;;;;;;15.25;2.22;;;5.20;99.90;;;;;;5000244;28;20037;-72
2023/02/25 08:07:01;;;;;;;14.00;2.95;;;5.20;99.90;;;;;;4978599;28;20392;-72
2023/02/25 08:09:27;;;;;;;11.90;1.63;;;5.30;99.90;;;;;;4997827;28;20476;-72
2023/02/25 08:11:53;;;;;;;14.75;2.10;;;5.30;99.90;;;;;;4996887;28;20041;-72
2023/02/25 08:14:20;;;;;;;15.55;1.83;;;5.40;99.90;;;;;;5005702;28;20018;-72
2023/02/25 08:16:46;;;;;;;10.20;1.58;;;5.30;99.90;;;;;;4994314;28;20057;-74
2023/02/25 08:19:12;;;;;;;11.80;1.77;;;5.20;99.90;;;;;;5000828;28;20030;-72
2023/02/25 08:21:39;;;;;;;15.02;1.70;;;5.10;99.90;;;;;;4995907;28;20524;-72
2023/02/25 08:24:05;;;;;;;12.63;1.73;;;5.10;99.90;;;;;;4988055;28;20033;-72
2023/02/25 08:26:31;;;;;;;11.30;1.30;;;5.20;99.90;;;;;;4993524;28;20172;-72
2023/02/25 08:28:58;;;;;;;13.85;1.88;;;5.20;99.90;;;;;;4971204;28;20509;-72
2023/02/25 08:31:24;;;;;;;21.38;1.92;;;5.30;99.90;;;;;;4993269;28;20042;-72
2023/02/25 08:33:51;;;;;;;23.40;2.92;;;5.40;99.90;;;;;;5000310;28;20054;-72
2023/02/25 08:36:20;;;;;;;13.68;1.85;;;5.50;99.90;;;;;;4999640;28;20069;-74
2023/02/25 08:38:46;;;;;;;18.33;3.33;;;5.60;99.90;;;;;;4978798;28;20155;-71
2023/02/25 08:41:12;;;;;;;17.00;2.20;;;5.80;99.90;;;;;;4980376;28;20088;-71
2023/02/25 08:43:41;;;;;;;12.85;1.25;;;5.90;99.90;;;;;;4991190;28;20046;-71
2023/02/25 08:46:07;;;;;;;5.25;0.60;;;5.90;99.90;;;;;;4989636;28;20080;-72
2023/02/25 08:48:33;;;;;;;3.75;0.75;;;5.90;99.90;;;;;;4972897;28;20050;-71
2023/02/25 08:51:09;;;;;;;2.03;0.30;;;5.80;99.90;;;;;;4993561;28;20502;-72
2023/02/25 08:53:39;;;;;;;3.80;1.05;;;5.70;99.90;;;;;;5000444;28;20034;-71
2023/02/25 08:56:06;;;;;;;6.45;1.75;;;5.80;99.90;;;;;;4974048;28;20026;-71
2023/02/25 08:58:33;;;;;;;3.97;0.40;;;5.80;99.90;;;;;;4989627;28;20126;-71
2023/02/25 09:00:59;;;;;;;6.35;0.60;;;5.90;99.90;;;;;;4992189;28;20038;-71
2023/02/25 09:03:25;;;;;;;5.78;0.52;;;6.00;99.90;;;;;;4990840;28;20502;-72
2023/02/25 09:05:52;;;;;;;5.68;0.70;;;6.10;99.90;;;;;;4988817;28;20035;-72
2023/02/25 09:08:18;;;;;;;10.27;2.00;;;6.20;99.90;;;;;;4973145;28;20044;-71
2023/02/25 09:10:44;;;;;;;4.05;0.50;;;6.30;99.90;;;;;;4986777;28;20471;-72
2023/02/25 09:13:09;;;;;;;4.25;0.50;;;6.30;99.90;;;;;;4969758;28;20145;-72
2023/02/25 09:15:35;;;;;;;4.05;1.02;;;6.30;99.90;;;;;;4988659;28;20045;-72
2023/02/25 09:18:00;;;;;;;8.38;1.52;;;6.30;99.90;;;;;;4987808;28;20426;-71
2023/02/25 09:20:26;;;;;;;6.28;1.23;;;6.30;99.90;;;;;;4971049;28;20073;-72
2023/02/25 09:22:53;;;;;;;4.38;1.35;;;6.30;99.90;;;;;;4986373;28;20030;-72
2023/02/25 09:25:19;;;;;;;3.78;1.40;;;6.40;99.90;;;;;;4990026;28;20042;-72
2023/02/25 09:27:44;;;;;;;8.48;0.80;;;6.40;99.90;;;;;;4968682;28;20065;-72
2023/02/25 09:30:10;;;;;;;8.52;1.27;;;6.50;99.90;;;;;;4990787;28;20066;-72
2023/02/25 09:32:36;;;;;;;5.95;1.10;;;6.50;99.90;;;;;;4983656;28;20491;-73
2023/02/25 09:35:02;;;;;;;10.63;1.30;;;6.60;99.90;;;;;;4988058;28;20057;-72
2023/02/25 09:37:28;;;;;;;5.55;0.75;;;6.60;99.90;;;;;;4986375;28;20550;-73
2023/02/25 09:39:53;;;;;;;7.22;0.70;;;6.70;99.90;;;;;;4989739;28;20033;-73
2023/02/25 09:42:22;;;;;;;6.80;0.80;;;6.70;99.90;;;;;;4991691;28;20034;-73
2023/02/25 09:44:55;;;;;;;13.52;1.30;;;6.70;99.90;;;;;;4966484;28;20046;-72
2023/02/25 09:47:41;;;;;;;20.42;0.77;;;6.90;99.90;;;;;;4985611;28;20027;-72
2023/02/25 09:50:20;;;;;;;3.38;0.50;;;7.00;99.90;;;;;;4985455;28;20442;-73
2023/02/25 09:53:05;;;;;;;5.55;0.60;;;7.00;99.90;;;;;;4998547;28;20042;-73
2023/02/25 09:55:34;;;;;;;0.88;0.20;;;6.70;99.90;;;;;;4966916;28;20041;-74
2023/02/25 09:58:18;;;;;;;4.90;0.30;;;6.10;99.90;;;;;;4986764;28;20723;-73
2023/02/25 10:00:56;;;;;;;2.30;0.47;;;5.60;99.90;;;;;;4964080;28;20100;-73
2023/02/25 10:04:04;;;;;;;5.78;0.30;;;5.40;99.90;;;;;;4984733;28;20494;-74
2023/02/25 10:06:42;;;;;;;3.78;0.63;;;5.30;99.90;;;;;;4965817;28;20054;-74
2023/02/25 10:09:22;;;;;;;0.82;0.13;;;5.20;99.90;;;;;;4985600;28;20121;-73
2023/02/25 10:11:53;;;;;;;5.32;0.55;;;5.30;99.90;;;;;;4983950;28;20041;-73
2023/02/25 10:14:35;;;;;;;0.05;0.00;;;5.40;99.90;;;;;;4986862;28;20043;-73
2023/02/25 10:17:17;;;;;;;1.63;0.17;;;5.40;99.90;;;;;;4971133;28;20046;-74
2023/02/25 10:20:25;;;;;;;4.65;0.20;;;5.50;99.90;;;;;;4987063;28;20042;-74
2023/02/25 10:23:13;;;;;;;3.25;0.17;;;5.70;99.90;;;;;;4985474;28;20057;-74
2023/02/25 10:25:49;;;;;;;2.35;0.38;;;5.90;99.90;;;;;;4985836;28;20030;-74
2023/02/25 10:28:16;;;;;;;2.03;0.10;;;6.00;99.90;;;;;;4983938;28;20088;-73
2023/02/25 10:30:42;;;;;;;2.42;0.30;;;6.20;99.90;;;;;;4983888;28;20117;-74
2023/02/25 10:33:17;;;;;;;2.05;0.35;;;6.20;99.90;;;;;;4988815;28;20767;-73
2023/02/25 10:35:43;;;;;;;5.68;1.30;;;6.20;99.90;;;;;;4965476;28;20034;-73
2023/02/25 10:38:11;;;;;;;4.38;0.60;;;6.10;99.90;;;;;;4986102;28;20074;-73
2023/02/25 10:40:39;;;;;;;15.70;1.27;;;6.00;99.90;;;;;;4985314;28;20113;-73
2023/02/25 10:43:22;;;;;;;5.97;0.47;;;5.90;99.90;;;;;;4986708;28;20038;-72
2023/02/25 10:46:01;;;;;;;6.63;0.68;;;5.80;99.90;;;;;;4963938;28;20111;-74
2023/02/25 10:48:28;;;;;;;3.58;0.88;;;5.90;99.90;;;;;;4982878;28;20042;-73
2023/02/25 10:51:11;;;;;;;5.13;0.50;;;6.00;99.90;;;;;;4966557;28;20073;-74
2023/02/25 10:53:39;;;;;;;3.67;0.73;;;6.10;99.90;;;;;;4983328;28;20085;-73
2023/02/25 10:56:06;;;;;;;1.67;0.50;;;6.20;99.90;;;;;;4986753;28;20030;-73
2023/02/25 10:58:45;;;;;;;5.10;0.43;;;6.30;99.90;;;;;;4983628;28;20031;-73
2023/02/25 11:01:12;;;;;;;7.25;0.43;;;6.40;99.90;;;;;;4983380;28;20069;-73
2023/02/25 11:03:55;;;;;;;3.92;0.68;;;6.60;99.90;;;;;;4988481;28;20801;-73
2023/02/25 11:06:34;;;;;;;5.45;0.47;;;6.70;99.90;;;;;;4984211;28;20030;-73
2023/02/25 11:09:02;;;;;;;13.13;1.42;;;6.80;99.90;;;;;;4965159;28;20077;-73
2023/02/25 11:11:33;;;;;;;7.38;1.25;;;7.00;99.90;;;;;;4965578;28;20050;-73
2023/02/25 11:14:04;;;;;;;1.42;0.28;;;7.00;99.90;;;;;;4982888;28;20030;-73
2023/02/25 11:16:31;;;;;;;;;;;6.60;99.90;;;;;;4984797;28;20038;-73
2023/02/25 11:19:00;;;;;;;8.13;1.35;;;6.20;99.90;;;;;;4983486;28;20612;-73
2023/02/25 11:21:35;;;;;;;5.63;0.45;;;6.00;99.90;;;;;;4983349;28;20034;-73
2023/02/25 11:24:07;;;;;;;2.30;0.55;;;5.80;99.90;;;;;;4998527;28;20042;-72
2023/02/25 11:26:36;;;;;;;7.97;0.98;;;5.60;99.90;;;;;;4985203;28;20034;-73
2023/02/25 11:29:13;;;;;;;4.50;0.50;;;5.50;99.90;;;;;;4983078;28;20037;-73
2023/02/25 11:31:40;;;;;;;2.53;0.40;;;5.50;99.90;;;;;;4982918;28;20081;-73
2023/02/25 11:34:22;;;;;;;4.43;0.40;;;5.50;99.90;;;;;;4998152;28;20038;-73
2023/02/25 11:36:49;;;;;;;5.63;0.57;;;5.70;99.90;;;;;;4981940;28;20041;-72
2023/02/25 11:39:26;;;;;;;4.97;0.93;;;5.70;99.90;;;;;;4965446;28;20038;-73
2023/02/25 11:42:00;;;;;;;7.93;0.68;;;5.90;99.90;;;;;;4981498;28;20042;-72
2023/02/25 11:44:40;;;;;;;18.13;1.25;;;6.00;99.90;;;;;;4965972;28;20064;-72
2023/02/25 11:47:15;;;;;;;;;;;6.20;99.90;;;;;;4976856;28;20576;-72
2023/02/25 11:49:41;;;;;;;1.80;0.20;;;6.20;99.90;;;;;;4983385;28;19914;-73
2023/02/25 11:52:31;;;;;;;2.15;0.28;;;6.30;99.90;;;;;;4965928;28;20057;-72
2023/02/25 11:54:56;;;;;;;5.13;0.47;;;6.40;99.90;;;;;;4982834;28;20105;-72
2023/02/25 11:57:49;;;;;;;3.22;0.17;;;6.50;99.90;;;;;;4983098;28;20128;-72
2023/02/25 12:00:28;;;;;;;5.30;0.40;;;6.60;99.90;;;;;;4982062;28;20136;-73
2023/02/25 12:03:09;;;;;;;3.65;0.60;;;6.80;99.90;;;;;;4984318;28;20037;-72
2023/02/25 12:05:53;;;;;;;;;;;7.00;99.90;;;;;;4982573;28;20122;-72
2023/02/25 12:08:38;;;;;;;4.07;0.60;;;7.10;99.90;;;;;;4984064;28;19925;-72
2023/02/25 12:11:51;;;;;;;2.25;0.47;;;7.30;99.90;;;;;;4982146;28;20042;-73
2023/02/25 12:14:29;;;;;;;4.88;1.02;;;7.20;99.90;;;;;;4959846;28;20042;-73
2023/02/25 12:17:19;;;;;;;3.92;0.30;;;7.20;99.90;;;;;;4985627;28;20039;-72
2023/02/25 12:20:07;;;;;;;2.55;0.63;;;7.40;99.90;;;;;;4987361;28;20142;-72
2023/02/25 12:23:01;;;;;;;3.20;0.60;;;7.40;99.90;;;;;;4987882;28;20049;-73
2023/02/25 12:26:05;;;;;;;6.47;1.23;;;7.50;99.90;;;;;;4990029;28;20196;-73
2023/02/25 12:28:49;;;;;;;12.07;1.55;;;7.50;99.90;;;;;;4977945;28;20042;-72
2023/02/25 12:31:24;;;;;;;5.55;0.52;;;7.30;99.90;;;;;;4978820;28;20884;-74
2023/02/25 12:34:01;;;;;;;3.03;0.80;;;7.30;99.90;;;;;;5008831;28;20034;-73
2023/02/25 12:37:00;;;;;;;4.38;1.88;;;7.40;99.90;;;;;;4973830;28;20039;-73
2023/02/25 12:39:52;;;;;;;3.85;0.50;;;7.50;99.90;;;;;;4970624;28;20376;-75
2023/02/25 12:42:39;;;;;;;1.02;0.60;;;7.60;99.90;;;;;;4986621;28;20561;-74
2023/02/25 12:45:40;;;;;;;2.55;1.08;;;7.80;99.90;;;;;;4989308;28;20038;-72
2023/02/25 12:48:39;;;;;;;3.53;0.57;;;7.80;99.90;;;;;;4985761;28;20073;-73
2023/02/25 12:51:27;;;;;;;9.02;1.17;;;7.70;99.80;;;;;;4987873;28;20388;-72
2023/02/25 12:53:55;;;;;;;3.25;0.38;;;7.40;99.90;;;;;;4988336;28;20503;-72
2023/02/25 12:56:39;;;;;;;8.38;0.63;;;7.30;99.90;;;;;;4988042;28;20049;-74
2023/02/25 12:59:41;;;;;;;7.65;1.05;;;7.30;99.90;;;;;;4986367;28;20048;-73
2023/02/25 13:02:25;;;;;;;10.63;1.45;;;7.40;99.90;;;;;;4985569;28;20042;-72
2023/02/25 13:05:37;;;;;;;3.78;0.65;;;7.40;99.90;;;;;;4988469;28;20137;-72
2023/02/25 13:08:09;;;;;;;2.35;0.65;;;7.20;99.90;;;;;;4986800;28;20035;-72
2023/02/25 13:10:37;;;;;;;4.55;0.60;;;7.20;99.90;;;;;;4969941;28;20045;-72
2023/02/25 13:13:41;;;;;;;1.13;0.45;;;7.30;99.90;;;;;;4986916;28;20431;-72
2023/02/25 13:16:10;;;;;;;4.50;0.57;;;7.50;99.90;;;;;;4986807;28;20080;-72